createdAt,value
2022-11-13T00:15:43.204Z,99.90
2022-11-13T00:24:34.429Z,99.90
2022-11-13T01:10:06.857Z,99.90
2022-11-13T01:12:53.899Z,99.90
2022-11-13T01:15:44.407Z,99.90
2022-11-13T02:08:05.124Z,99.90
2022-11-13T02:10:52.594Z,99.90
2022-11-13T02:13:39.722Z,99.90
2022-11-13T02:19:51.169Z,99.90
2022-11-13T02:22:44.024Z,99.90
2022-11-13T02:44:12.184Z,99.90
2022-11-13T02:46:59.559Z,99.90
2022-11-13T03:01:58.641Z,99.90
2022-11-13T03:05:10.827Z,99.90
2022-11-13T03:23:47.109Z,99.90
2022-11-13T03:26:57.222Z,99.90
2022-11-13T03:30:46.706Z,99.90
2022-11-13T03:33:38.880Z,99.90
2022-11-13T03:47:24.959Z,99.90
2022-11-13T03:50:22.916Z,99.90
2022-11-13T03:57:08.670Z,99.90
2022-11-13T04:07:18.889Z,99.90
2022-11-13T04:10:18.899Z,99.90
2022-11-13T04:13:33.370Z,99.90
2022-11-13T04:16:40.800Z,99.90
2022-11-13T04:20:15.592Z,99.90
2022-11-13T04:24:36.706Z,99.90
2022-11-13T04:30:21.274Z,99.90
2022-11-13T04:37:27.180Z,99.90
2022-11-13T04:44:26.926Z,99.90
2022-11-13T05:09:30.871Z,99.90
2022-11-13T05:13:23.623Z,99.90
2022-11-13T05:17:16.553Z,99.90
2022-11-13T05:20:17.414Z,99.90
2022-11-13T05:23:13.332Z,99.90
2022-11-13T05:26:25.571Z,99.90
2022-11-13T05:33:00.871Z,99.90
2022-11-13T05:36:01.637Z,99.90
2022-11-13T05:38:49.539Z,99.90
2022-11-13T05:41:37.208Z,99.90
2022-11-13T05:45:23.206Z,99.90
2022-11-13T06:12:47.007Z,99.90
2022-11-13T06:15:34.355Z,99.90
2022-11-13T06:18:26.468Z,99.90
2022-11-13T06:21:18.697Z,99.90
2022-11-13T06:24:06.641Z,99.90
2022-11-13T06:26:53.990Z,99.90
2022-11-13T06:42:09.583Z,99.90
2022-11-13T06:44:56.648Z,99.90
2022-11-13T06:47:43.771Z,99.90
2022-11-13T07:05:45.775Z,99.90
2022-11-13T07:08:33.278Z,99.90
2022-11-13T07:14:26.464Z,99.90
2022-11-13T07:35:48.264Z,99.90
2022-11-13T08:12:01.074Z,99.90
2022-11-13T08:14:48.568Z,99.90
2022-11-13T08:26:57.328Z,99.90
2022-11-13T08:29:44.317Z,99.90
2022-11-13T08:32:31.715Z,99.90
2022-11-13T08:35:19.967Z,99.90
2022-11-13T08:38:09.221Z,99.90
2022-11-13T08:56:11.294Z,99.90
2022-11-13T10:03:13.201Z,99.90
2022-11-13T10:06:23.664Z,99.90
2022-11-13T10:09:25.062Z,99.90
2022-11-13T10:12:27.679Z,99.90
2022-11-13T11:07:20.363Z,95.10
2022-11-13T11:43:56.335Z,94.30
2022-11-13T11:46:51.999Z,94.00
2022-11-13T11:49:43.836Z,94.30
2022-11-13T11:53:00.697Z,93.50
2022-11-13T11:56:14.077Z,93.80
2022-11-13T11:59:35.913Z,93.40
2022-11-13T12:05:49.408Z,92.50
2022-11-13T12:08:41.778Z,92.60
2022-11-13T12:12:07.011Z,93.60
2022-11-13T12:18:47.350Z,92.50
2022-11-13T12:21:55.453Z,92.20
2022-11-13T12:36:23.150Z,90.90
2022-11-13T12:43:08.976Z,90.30
2022-11-13T12:46:49.484Z,90.40
2022-11-13T12:49:45.021Z,90.20
2022-11-13T12:52:38.994Z,90.80
2022-11-13T12:55:52.273Z,90.50
2022-11-13T12:59:15.595Z,90.50
2022-11-13T13:06:12.259Z,91.50
2022-11-13T13:08:59.632Z,91.50
2022-11-13T13:19:22.600Z,94.50
2022-11-13T13:22:46.743Z,93.90
2022-11-13T13:25:43.990Z,93.70
2022-11-13T13:29:20.250Z,93.10
2022-11-13T13:32:22.199Z,92.60
2022-11-13T13:35:44.070Z,92.30
2022-11-13T13:39:26.942Z,92.60
2022-11-13T13:42:33.397Z,92.40
2022-11-13T13:49:11.258Z,93.00
2022-11-13T13:52:18.477Z,92.90
2022-11-13T13:55:26.535Z,92.60
2022-11-13T13:58:34.245Z,92.20
2022-11-13T14:01:45.847Z,92.00
2022-11-13T14:04:46.695Z,91.10
2022-11-13T14:08:15.626Z,90.20
2022-11-13T14:11:38.859Z,90.00
2022-11-13T14:14:53.384Z,87.70
2022-11-13T14:17:55.021Z,86.80
2022-11-13T14:20:55.013Z,87.20
2022-11-13T14:23:53.650Z,86.60
2022-11-13T14:26:44.387Z,86.10
2022-11-13T14:29:41.826Z,86.90
2022-11-13T14:36:47.457Z,87.30
2022-11-13T14:43:00.922Z,87.70
2022-11-13T14:46:18.206Z,90.30
2022-11-13T14:49:29.734Z,95.50
2022-11-13T14:52:26.215Z,99.10
2022-11-13T14:55:25.044Z,99.90
2022-11-13T14:58:47.373Z,99.90
2022-11-13T15:01:38.701Z,99.90
2022-11-13T15:04:40.203Z,99.90
2022-11-13T15:07:35.398Z,99.90
2022-11-13T15:10:38.561Z,99.90
2022-11-13T15:13:31.106Z,99.90
2022-11-13T15:16:55.240Z,99.90
2022-11-13T15:20:31.909Z,99.90
2022-11-13T15:27:48.511Z,99.90
2022-11-13T15:31:14.033Z,99.90
2022-11-13T15:37:29.616Z,99.90
2022-11-13T15:40:29.234Z,99.90
2022-11-13T15:43:28.990Z,99.90
2022-11-13T15:46:23.139Z,99.90
2022-11-13T15:49:19.580Z,99.90
2022-11-13T15:52:11.087Z,99.90
2022-11-13T15:55:36.740Z,99.90
2022-11-13T15:58:46.304Z,99.90
2022-11-13T16:01:36.802Z,99.90
2022-11-13T16:16:45.759Z,99.90
2022-11-13T16:19:39.786Z,99.90
2022-11-13T16:23:05.269Z,99.90
2022-11-13T17:52:21.136Z,99.90
2022-11-13T18:16:47.105Z,99.90
2022-11-13T18:23:10.332Z,99.90
2022-11-13T18:29:15.201Z,99.90
2022-11-13T18:32:08.358Z,99.90
2022-11-13T18:34:57.989Z,99.90
2022-11-13T18:37:48.999Z,99.90
2022-11-13T18:40:38.226Z,99.90
2022-11-13T18:43:26.506Z,99.90
2022-11-13T18:46:16.671Z,99.90
2022-11-13T18:53:11.850Z,99.90
2022-11-13T18:56:49.122Z,99.90
2022-11-13T18:59:51.932Z,99.90
2022-11-13T19:02:57.279Z,99.90
2022-11-13T19:05:47.871Z,99.90
2022-11-13T19:08:48.213Z,99.90
2022-11-13T19:11:49.290Z,99.90
2022-11-13T19:14:36.814Z,99.90
2022-11-13T19:17:29.549Z,99.90
2022-11-13T19:20:22.588Z,99.90
2022-11-13T19:23:17.314Z,99.90
2022-11-13T19:26:15.111Z,99.90
2022-11-13T19:29:05.776Z,99.90
2022-11-13T19:31:54.883Z,99.90
2022-11-13T19:34:50.177Z,99.90
2022-11-13T19:37:44.501Z,99.90
2022-11-13T19:40:31.795Z,99.90
2022-11-13T19:43:24.433Z,99.90
2022-11-13T19:46:15.018Z,99.90
2022-11-13T19:49:10.912Z,99.90
2022-11-13T19:52:02.076Z,99.90
2022-11-13T19:54:49.935Z,99.90
2022-11-13T19:57:39.847Z,99.90
2022-11-13T20:00:30.608Z,99.90
2022-11-13T20:06:27.637Z,99.90
2022-11-13T20:09:16.175Z,99.90
2022-11-13T20:12:06.613Z,99.90
2022-11-13T20:14:55.534Z,99.90
2022-11-13T20:17:43.316Z,99.90
2022-11-13T20:20:31.023Z,99.90
2022-11-13T20:23:20.494Z,99.90
2022-11-13T20:26:14.262Z,99.90
2022-11-13T20:29:05.162Z,99.90
2022-11-13T20:32:06.834Z,99.90
2022-11-13T20:34:54.269Z,99.90
2022-11-13T20:37:41.827Z,99.90
2022-11-13T20:40:31.217Z,99.90
2022-11-13T20:43:18.920Z,99.90
2022-11-13T20:46:14.748Z,99.90
2022-11-13T20:49:51.071Z,99.90
2022-11-13T20:52:43.236Z,99.90
2022-11-13T20:55:39.839Z,99.90
2022-11-13T20:58:33.317Z,99.90
2022-11-13T21:01:46.071Z,99.90
2022-11-13T21:04:36.638Z,99.90
2022-11-13T21:07:28.284Z,99.90
2022-11-13T21:10:20.289Z,99.90
2022-11-13T21:13:10.978Z,99.90
2022-11-13T21:16:18.402Z,99.90
2022-11-13T21:19:15.641Z,99.90
2022-11-13T21:22:06.849Z,99.90
2022-11-13T21:24:54.363Z,99.90
2022-11-13T21:27:45.362Z,99.90
2022-11-13T21:30:33.008Z,99.90
2022-11-13T21:33:24.522Z,99.90
2022-11-13T21:36:23.309Z,99.90
2022-11-13T21:39:10.737Z,99.90
2022-11-13T21:41:59.243Z,99.90
2022-11-13T21:44:47.258Z,99.90
2022-11-13T21:47:45.334Z,99.90
2022-11-13T21:50:36.517Z,99.90
2022-11-13T21:53:24.461Z,99.90
2022-11-13T21:56:15.725Z,99.90
2022-11-13T21:59:03.738Z,99.90
2022-11-13T22:01:58.230Z,99.90
2022-11-13T22:04:52.277Z,99.90
2022-11-13T22:07:45.851Z,99.90
2022-11-13T22:10:34.373Z,99.90
2022-11-13T22:13:35.584Z,99.90
2022-11-13T22:16:38.276Z,99.90
2022-11-13T22:19:40.686Z,99.90
2022-11-13T22:22:37.569Z,99.90
2022-11-13T22:25:25.100Z,99.90
2022-11-13T22:28:15.488Z,99.90
2022-11-13T22:31:08.121Z,99.90
2022-11-13T22:34:04.242Z,99.90
2022-11-13T22:36:51.592Z,99.90
2022-11-13T22:39:45.744Z,99.90
2022-11-13T22:42:47.121Z,99.90
2022-11-13T22:45:37.435Z,99.90
2022-11-13T22:48:32.490Z,99.90
2022-11-13T22:51:21.075Z,99.90
2022-11-13T22:54:11.057Z,99.90
2022-11-13T22:57:10.954Z,99.90
2022-11-13T23:00:04.432Z,99.90
2022-11-13T23:02:52.247Z,99.90
2022-11-13T23:05:47.860Z,99.90
2022-11-13T23:08:42.915Z,99.90
2022-11-13T23:11:34.195Z,99.90
2022-11-13T23:14:21.511Z,99.90
2022-11-13T23:17:19.552Z,99.90
2022-11-13T23:20:07.682Z,99.90
2022-11-13T23:22:55.677Z,99.90
2022-11-13T23:25:52.569Z,99.90
2022-11-13T23:28:42.856Z,99.90
2022-11-13T23:31:40.115Z,99.90
2022-11-13T23:34:58.303Z,99.90
2022-11-13T23:37:43.068Z,99.90
2022-11-13T23:40:33.031Z,99.90
2022-11-13T23:43:23.593Z,99.90
2022-11-13T23:46:28.404Z,99.90
2022-11-13T23:49:16.541Z,99.90
2022-11-13T23:52:09.258Z,99.90
2022-11-13T23:54:59.692Z,99.90
2022-11-13T23:58:05.549Z,99.90
